Time;durP1;ratioP1;P1;durP2;ratioP2;P2;SDS_P1;SDS_P2;PMS_P1;PMS_P2;Temp;Humidity;BMP_temperature;BMP_pressure;BME280_temperature;BME280_humidity;BME280_pressure;Samples;Min_cycle;Max_cycle;Signal;HPM_P1;HPM_P2
2022/03/20 00:01:02;;;;;;;10.23;6.30;;;;;;;0.95;63.88;102429.31;5030515;28;20032;-65
2022/03/20 00:03:28;;;;;;;9.45;5.55;;;;;;;1.32;63.73;102487.09;5030423;28;20049;-64
2022/03/20 00:05:54;;;;;;;9.45;5.93;;;;;;;1.08;64.37;102489.25;5030225;28;20029;-65
2022/03/20 00:08:19;;;;;;;14.30;8.10;;;;;;;0.92;63.72;102449.19;5030326;28;20083;-64
2022/03/20 00:10:51;;;;;;;17.02;10.13;;;;;;;1.21;62.76;102450.66;5030312;28;20112;-64
2022/03/20 00:13:19;;;;;;;8.23;5.90;;;;;;;1.27;61.69;102448.44;5029895;28;20033;-64
2022/03/20 00:15:47;;;;;;;8.00;5.75;;;;;;;1.15;61.54;102413.63;5030502;28;20439;-64
2022/03/20 00:18:14;;;;;;;8.95;6.10;;;;;;;1.19;60.60;102417.16;5030345;28;20439;-64
2022/03/20 00:20:45;;;;;;;8.52;5.55;;;;;;;1.48;60.46;102487.94;5028969;28;20032;-64
2022/03/20 00:23:12;;;;;;;10.40;5.25;;;;;;;1.43;61.24;102491.84;5030958;28;20544;-64
2022/03/20 00:25:39;;;;;;;11.98;7.10;;;;;;;1.37;61.54;102481.53;5032837;28;20030;-64
2022/03/20 00:28:08;;;;;;;9.57;6.32;;;;;;;1.25;62.35;102473.41;5034288;28;20106;-64
2022/03/20 00:30:34;;;;;;;12.75;7.25;;;;;;;1.03;62.07;102429.69;5034363;28;20040;-64
2022/03/20 00:33:00;;;;;;;14.02;8.32;;;;;;;1.06;62.88;102489.94;5033990;28;20029;-64
2022/03/20 00:35:25;;;;;;;14.32;8.23;;;;;;;1.14;63.04;102478.66;5034120;28;20598;-64
2022/03/20 00:37:50;;;;;;;12.30;6.90;;;;;;;1.38;62.55;102483.25;5034069;28;20083;-64
2022/03/20 00:40:16;;;;;;;13.63;8.43;;;;;;;1.28;63.06;102473.56;5032250;28;20033;-64
2022/03/20 00:42:41;;;;;;;10.93;6.68;;;;;;;1.10;62.66;102482.66;5033927;28;20488;-64
2022/03/20 00:45:07;;;;;;;11.75;6.72;;;;;;;1.24;62.87;102478.34;5033982;28;20029;-64
2022/03/20 00:47:33;;;;;;;13.30;6.38;;;;;;;0.83;62.75;102421.19;5033656;28;20028;-64
2022/03/20 00:49:58;;;;;;;10.18;6.90;;;;;;;1.22;62.68;102482.41;5033815;28;20471;-64
2022/03/20 00:52:24;;;;;;;9.82;6.00;;;;;;;1.12;64.05;102447.66;5033598;28;20415;-64
2022/03/20 00:54:49;;;;;;;10.10;5.97;;;;;;;0.82;62.57;102417.81;5033304;28;20064;-64
2022/03/20 00:57:15;;;;;;;8.77;5.82;;;;;;;1.36;62.13;102484.84;5033839;28;20120;-64
2022/03/20 00:59:41;;;;;;;11.05;5.85;;;;;;;1.06;61.84;102462.38;5033896;28;20407;-64
2022/03/20 01:02:24;;;;;;;9.29;5.73;;;;;;;0.25;62.94;102388.94;4896801;23;10000533;-67
2022/03/20 01:04:50;;;;;;;9.50;5.93;;;;;;;0.79;63.50;102460.19;5030036;28;20376;-67
2022/03/20 01:07:15;;;;;;;8.88;5.57;;;;;;;0.97;64.49;102465.28;5033948;28;20124;-67
2022/03/20 01:09:41;;;;;;;7.93;5.93;;;;;;;0.81;63.52;102418.59;5033638;28;20064;-67
2022/03/20 01:12:09;;;;;;;8.10;5.45;;;;;;;0.58;63.38;102405.69;5033302;28;20032;-67
2022/03/20 01:14:35;;;;;;;11.32;6.22;;;;;;;0.97;63.35;102461.94;5033328;28;20122;-67
2022/03/20 01:17:01;;;;;;;8.18;5.10;;;;;;;0.71;62.38;102413.88;5033268;28;20056;-67
2022/03/20 01:19:27;;;;;;;9.20;5.72;;;;;;;1.30;61.28;102464.47;5033199;28;20033;-67
2022/03/20 01:21:54;;;;;;;8.88;5.80;;;;;;;1.03;60.22;102413.00;5033437;28;20033;-66
2022/03/20 01:24:21;;;;;;;8.05;5.47;;;;;;;0.91;60.50;102412.44;5033479;28;20033;-67
2022/03/20 01:26:46;;;;;;;9.35;5.75;;;;;;;1.05;61.79;102448.16;5033048;28;20546;-67
2022/03/20 01:29:12;;;;;;;8.40;6.05;;;;;;;0.56;62.53;102392.22;5031862;28;20125;-67
2022/03/20 01:31:38;;;;;;;9.02;5.72;;;;;;;0.62;63.78;102400.06;5033122;28;20403;-67
2022/03/20 01:34:04;;;;;;;7.70;5.60;;;;;;;0.69;64.82;102477.19;5032699;28;20086;-67
2022/03/20 01:36:30;;;;;;;9.23;6.10;;;;;;;0.26;65.79;102403.19;5032654;28;20034;-66
2022/03/20 01:38:56;;;;;;;10.38;6.18;;;;;;;0.29;67.59;102449.22;5032790;28;20029;-66
2022/03/20 01:41:23;;;;;;;8.85;5.90;;;;;;;0.79;68.41;102471.88;5033211;28;20030;-66
2022/03/20 01:44:08;;;;;;;8.75;6.00;;;;;;;0.90;68.18;102453.25;5032682;28;20491;-66
2022/03/20 01:46:34;;;;;;;9.70;6.50;;;;;;;0.72;67.42;102453.16;5032514;28;20042;-66
2022/03/20 01:48:59;;;;;;;10.07;6.38;;;;;;;0.51;67.23;102474.59;5033143;28;20467;-66
2022/03/20 01:54:13;;;;;;;12.32;6.65;;;;;;;0.47;67.41;102411.78;5032680;28;20124;-66
2022/03/20 01:56:46;;;;;;;10.80;6.28;;;;;;;0.61;68.21;102420.88;5032249;28;20480;-66
2022/03/20 01:59:14;;;;;;;11.90;7.47;;;;;;;0.24;68.98;102409.75;5031397;28;20033;-67
2022/03/20 02:01:40;;;;;;;12.70;7.15;;;;;;;0.67;69.68;102467.06;5032266;28;20037;-67
2022/03/20 02:04:05;;;;;;;17.38;8.48;;;;;;;0.62;69.73;102477.63;5032540;28;20034;-66
2022/03/20 02:06:31;;;;;;;17.77;8.70;;;;;;;0.71;70.33;102463.09;5032394;28;20124;-66
2022/03/20 02:08:56;;;;;;;15.93;8.80;;;;;;;-0.21;69.19;102354.00;5030954;28;20422;-67
2022/03/20 02:11:25;;;;;;;19.15;9.05;;;;;;;0.50;70.16;102482.84;5030824;28;20044;-67
2022/03/20 02:13:52;;;;;;;16.73;8.85;;;;;;;-0.09;70.21;102417.16;5032327;28;20543;-67
2022/03/20 02:16:18;;;;;;;14.25;8.32;;;;;;;0.34;72.52;102424.41;5030943;28;20029;-66
2022/03/20 02:18:44;;;;;;;16.10;7.93;;;;;;;0.51;70.61;102479.59;5032301;28;20099;-67
2022/03/20 02:21:09;;;;;;;13.23;8.20;;;;;;;0.27;71.10;102459.91;5032100;28;20452;-66
2022/03/20 02:23:36;;;;;;;12.88;8.18;;;;;;;0.23;69.92;102413.00;5032121;28;20038;-67
2022/03/20 02:26:03;;;;;;;19.73;9.30;;;;;;;0.68;69.86;102463.81;5031810;28;20029;-67
2022/03/20 02:28:28;;;;;;;16.95;8.90;;;;;;;1.04;72.21;102484.84;5031937;28;20025;-67
2022/03/20 02:30:54;;;;;;;21.38;9.52;;;;;;;0.46;69.92;102475.97;5032228;28;20553;-67
2022/03/20 02:33:23;;;;;;;16.90;8.80;;;;;;;0.75;68.66;102465.00;5032034;28;20039;-67
2022/03/20 02:35:49;;;;;;;14.13;8.27;;;;;;;0.67;68.51;102469.56;5030284;28;20037;-67
2022/03/20 02:38:15;;;;;;;15.10;8.60;;;;;;;0.10;68.84;102448.16;5031831;28;20056;-67
2022/03/20 02:40:40;;;;;;;14.65;7.75;;;;;;;0.22;68.87;102398.78;5030148;28;20033;-67
2022/03/20 02:43:07;;;;;;;12.27;8.35;;;;;;;0.69;68.73;102472.19;5032064;28;20029;-67
2022/03/20 02:45:34;;;;;;;12.55;7.57;;;;;;;0.39;68.01;102463.06;5030506;28;20098;-67
2022/03/20 02:48:01;;;;;;;12.65;7.63;;;;;;;0.65;69.30;102476.13;5030681;28;20032;-67
2022/03/20 02:50:29;;;;;;;11.65;7.55;;;;;;;-0.58;70.26;102357.78;5030390;28;20503;-67
2022/03/20 02:52:56;;;;;;;14.80;8.13;;;;;;;0.67;72.16;102481.25;5031510;28;20033;-66
2022/03/20 02:55:27;;;;;;;12.60;8.63;;;;;;;0.06;72.22;102406.25;5031168;28;20033;-66
2022/03/20 02:57:55;;;;;;;17.08;8.77;;;;;;;0.35;73.55;102466.19;5031534;28;20495;-67
2022/03/20 03:00:25;;;;;;;13.07;8.23;;;;;;;0.44;74.65;102470.03;5031356;28;20033;-67
2022/03/20 03:02:51;;;;;;;14.65;9.45;;;;;;;-0.39;74.71;102475.44;5031460;28;20048;-67
2022/03/20 03:05:18;;;;;;;16.65;10.93;;;;;;;-0.50;79.51;102351.59;5029860;28;20041;-67
2022/03/20 03:13:15;;;;;;;18.38;10.70;;;;;;;0.15;77.40;102475.13;5031159;28;20129;-67
2022/03/20 03:15:42;;;;;;;16.27;10.20;;;;;;;-0.35;75.50;102491.44;5031042;28;20025;-67
2022/03/20 03:18:07;;;;;;;16.70;9.73;;;;;;;-0.23;77.70;102487.13;5030695;28;20037;-67
2022/03/20 03:20:34;;;;;;;14.32;9.02;;;;;;;-0.34;78.22;102428.22;5031080;28;20038;-67
2022/03/20 03:23:00;;;;;;;13.68;9.27;;;;;;;0.22;80.74;102466.31;5031299;28;20061;-67
2022/03/20 03:25:25;;;;;;;13.75;9.60;;;;;;;-0.12;82.18;102474.44;5030834;28;20052;-67
2022/03/20 03:27:52;;;;;;;19.40;9.75;;;;;;;-0.46;82.93;102482.50;5031003;28;20418;-67
2022/03/20 03:30:18;;;;;;;13.35;9.30;;;;;;;-0.69;85.70;102431.22;5029586;28;20033;-68
2022/03/20 03:32:44;;;;;;;23.52;13.60;;;;;;;-0.27;85.85;102482.75;5030368;28;20108;-67
2022/03/20 03:37:55;;;;;;;17.30;11.55;;;;;;;-0.89;88.67;102411.75;5030307;28;20052;-66
2022/03/20 03:40:21;;;;;;;20.15;13.75;;;;;;;-0.77;90.48;102432.44;5030792;28;20033;-67
2022/03/20 03:42:47;;;;;;;21.58;13.15;;;;;;;-0.89;90.19;102439.22;5029366;28;20073;-67
2022/03/20 03:45:12;;;;;;;22.00;12.95;;;;;;;-0.57;91.00;102501.84;5030290;28;20088;-67
2022/03/20 03:47:40;;;;;;;23.55;13.93;;;;;;;-0.78;93.68;102503.13;5030769;28;20025;-67
2022/03/20 03:50:07;;;;;;;24.35;14.57;;;;;;;-0.42;95.63;102475.28;5030490;28;20029;-67
2022/03/20 03:52:32;;;;;;;28.02;17.13;;;;;;;-0.81;96.04;102497.94;5030565;28;20033;-67
2022/03/20 03:54:57;;;;;;;19.83;13.27;;;;;;;-1.32;97.26;102373.50;5029168;28;20124;-67
2022/03/20 03:57:23;;;;;;;19.17;13.18;;;;;;;-1.24;92.23;102424.69;5029028;28;20033;-67
2022/03/20 03:59:48;;;;;;;23.98;14.25;;;;;;;-1.26;95.39;102427.88;5028735;28;20415;-67
2022/03/20 04:02:14;;;;;;;23.02;14.48;;;;;;;-1.00;96.62;102506.00;5030474;28;20041;-67
2022/03/20 04:04:41;;;;;;;23.20;13.65;;;;;;;-1.43;99.09;102485.88;5030390;28;20034;-67
2022/03/20 04:07:07;;;;;;;19.88;12.18;;;;;;;-0.97;98.84;102486.19;5030634;28;20030;-67
2022/03/20 04:09:33;;;;;;;22.77;13.23;;;;;;;-1.56;98.23;102411.94;5030395;28;20037;-68
2022/03/20 04:11:58;;;;;;;32.40;18.55;;;;;;;-1.18;100.00;102494.91;5030084;28;20036;-67
2022/03/20 04:14:24;;;;;;;40.42;21.52;;;;;;;-0.52;100.00;102517.97;5030077;28;20048;-67
2022/03/20 04:16:50;;;;;;;33.42;20.15;;;;;;;-1.12;100.00;102444.50;5028996;28;20166;-67
2022/03/20 04:19:16;;;;;;;36.67;19.50;;;;;;;-1.23;96.90;102431.41;5030265;28;20068;-67
2022/03/20 04:21:41;;;;;;;36.97;19.55;;;;;;;-1.36;100.00;102420.63;5030379;28;20475;-67
2022/03/20 04:24:07;;;;;;;35.17;21.65;;;;;;;-1.09;100.00;102424.75;5028949;28;20487;-67
2022/03/20 04:26:34;;;;;;;35.58;21.98;;;;;;;-0.89;100.00;102501.63;5030210;28;20164;-67
2022/03/20 04:28:59;;;;;;;40.40;23.35;;;;;;;-1.34;99.01;102424.94;5028603;28;20032;-67
2022/03/20 04:31:25;;;;;;;39.05;24.75;;;;;;;-1.19;100.00;102423.31;5030388;28;20022;-67
2022/03/20 04:33:54;;;;;;;37.13;22.77;;;;;;;-0.53;100.00;102511.25;5028757;28;20088;-67
2022/03/20 04:36:23;;;;;;;43.47;25.10;;;;;;;-0.78;100.00;102433.22;5030080;28;20026;-67
2022/03/20 04:38:51;;;;;;;40.45;26.20;;;;;;;-0.54;96.57;102512.03;5029919;28;20033;-66
2022/03/20 04:41:17;;;;;;;46.90;28.85;;;;;;;-1.13;91.88;102391.25;5028672;28;20038;-66
2022/03/20 04:43:50;;;;;;;42.40;27.65;;;;;;;-0.96;94.71;102487.06;5029794;28;20036;-66
2022/03/20 04:46:16;;;;;;;44.42;26.25;;;;;;;-0.28;97.79;102486.03;5030095;28;20045;-67
2022/03/20 04:59:37;;;;;;;81.20;43.17;;;;;;;0.35;83.80;102436.16;5030028;28;20091;-67
2022/03/20 05:02:03;;;;;;;58.22;33.70;;;;;;;-0.18;82.03;102450.78;5029782;28;20465;-67
2022/03/20 05:04:28;;;;;;;42.45;22.92;;;;;;;0.02;81.51;102440.22;5029649;28;20040;-67
2022/03/20 05:06:54;;;;;;;32.53;18.75;;;;;;;0.34;81.42;102444.44;5030018;28;20037;-67
2022/03/20 05:14:48;;;;;;;20.60;13.13;;;;;;;0.25;76.21;102461.47;5033024;28;20043;-68
2022/03/20 05:17:13;;;;;;;17.63;12.60;;;;;;;0.09;76.27;102448.91;5033165;28;20037;-69
2022/03/20 05:19:40;;;;;;;25.83;16.60;;;;;;;0.47;78.20;102476.84;5033314;28;20168;-69
2022/03/20 05:22:10;;;;;;;26.85;18.20;;;;;;;0.77;78.36;102514.31;5032104;28;20096;-68
2022/03/20 05:24:37;;;;;;;21.83;13.93;;;;;;;1.01;76.70;102491.34;5033052;28;20112;-67
2022/03/20 05:27:04;;;;;;;20.35;12.05;;;;;;;0.34;74.18;102460.31;5033189;28;20072;-67
2022/03/20 05:29:29;;;;;;;17.55;12.57;;;;;;;1.66;72.68;102498.00;5031625;28;20375;-67
2022/03/20 05:31:55;;;;;;;17.33;11.98;;;;;;;1.75;70.24;102513.47;5032709;28;20021;-67
2022/03/20 05:34:22;;;;;;;21.15;12.63;;;;;;;1.82;71.64;102505.47;5031696;28;20064;-67
2022/03/20 05:36:48;;;;;;;19.52;11.90;;;;;;;2.33;68.28;102505.41;5033003;28;20079;-68
2022/03/20 05:39:14;;;;;;;16.20;11.15;;;;;;;2.69;66.88;102505.34;5032373;28;20033;-67
2022/03/20 05:41:50;;;;;;;20.00;10.73;;;;;;;2.65;66.25;102459.16;5031035;28;20060;-68
2022/03/20 05:44:24;;;;;;;15.10;10.57;;;;;;;2.93;64.76;102486.34;5032725;28;20090;-68
2022/03/20 05:46:51;;;;;;;21.13;11.63;;;;;;;2.83;65.71;102447.41;5032123;28;20053;-68
2022/03/20 05:49:18;;;;;;;17.83;11.95;;;;;;;3.41;63.62;102511.91;5031429;28;20180;-69
2022/03/20 05:51:45;;;;;;;16.77;11.65;;;;;;;3.91;61.43;102503.03;5035012;28;20033;-68
2022/03/20 05:54:10;;;;;;;19.80;11.02;;;;;;;3.59;60.25;102505.91;5052259;28;20029;-68
2022/03/20 05:59:20;;;;;;;20.27;11.23;;;;;;;3.78;58.00;102451.38;5052462;28;20040;-68
2022/03/20 06:01:45;;;;;;;17.23;10.70;;;;;;;4.65;57.40;102500.88;5052425;28;20033;-68
2022/03/20 06:04:11;;;;;;;16.30;11.30;;;;;;;4.67;58.04;102507.69;5052459;28;20021;-68
2022/03/20 06:06:37;;;;;;;14.35;9.60;;;;;;;3.82;56.17;102458.25;5052392;28;20495;-69
2022/03/20 06:09:04;;;;;;;15.07;10.27;;;;;;;4.49;56.95;102459.16;5037693;28;20120;-69
2022/03/20 06:11:30;;;;;;;16.27;9.77;;;;;;;4.71;55.85;102488.50;5031970;28;20423;-69
2022/03/20 06:13:55;;;;;;;16.13;10.40;;;;;;;4.79;54.81;102421.59;5032105;28;20029;-68
2022/03/20 06:16:24;;;;;;;17.55;11.27;;;;;;;4.40;54.73;102394.19;5032250;28;20419;-68
2022/03/20 06:18:49;;;;;;;14.68;10.63;;;;;;;5.35;52.96;102436.13;5031781;28;20474;-68
2022/03/20 06:21:15;;;;;;;18.80;11.15;;;;;;;4.84;52.17;102438.59;5030506;28;20102;-69
2022/03/20 06:23:40;;;;;;;15.23;10.52;;;;;;;6.24;49.73;102502.94;5032302;28;20082;-67
2022/03/20 06:26:09;;;;;;;18.10;11.52;;;;;;;6.31;51.46;102473.69;5030762;28;20155;-68
2022/03/20 06:28:35;;;;;;;15.25;9.70;;;;;;;5.91;49.64;102491.81;5031998;28;20035;-69
2022/03/20 06:31:01;;;;;;;13.25;8.30;;;;;;;6.08;46.58;102498.25;5031767;28;20026;-68
2022/03/20 06:33:27;;;;;;;9.98;7.25;;;;;;;5.44;45.11;102467.56;5031675;28;20039;-68
2022/03/20 06:35:53;;;;;;;10.70;7.13;;;;;;;5.83;45.17;102435.16;5031712;28;20187;-68
2022/03/20 06:38:19;;;;;;;8.98;6.28;;;;;;;6.49;43.24;102489.38;5031276;28;20034;-68
2022/03/20 06:40:45;;;;;;;14.25;8.88;;;;;;;7.25;43.72;102475.50;5031945;28;20533;-68
2022/03/20 06:43:11;;;;;;;8.73;7.05;;;;;;;6.66;42.38;102471.34;5032046;28;20033;-68
2022/03/20 06:45:36;;;;;;;12.02;5.57;;;;;;;5.59;40.74;102414.19;5031559;28;20048;-67
2022/03/20 06:48:03;;;;;;;8.65;5.85;;;;;;;5.79;41.40;102419.06;5031661;28;20041;-67
2022/03/20 06:50:29;;;;;;;8.25;5.15;;;;;;;5.94;39.99;102406.09;5031461;28;20506;-67
2022/03/20 06:52:54;;;;;;;9.65;5.80;;;;;;;7.39;41.02;102450.56;5029691;28;20041;-67
2022/03/20 06:55:20;;;;;;;10.30;6.30;;;;;;;5.79;40.24;102367.72;5030157;28;20129;-68
2022/03/20 06:57:46;;;;;;;9.68;6.07;;;;;;;7.03;39.17;102415.06;5031474;28;20096;-68
2022/03/20 07:00:14;;;;;;;7.80;5.45;;;;;;;7.28;38.72;102470.53;5031321;28;20103;-68
2022/03/20 07:02:40;;;;;;;6.20;4.43;;;;;;;6.32;38.11;102435.81;5031216;28;20041;-69
2022/03/20 07:05:06;;;;;;;7.00;5.40;;;;;;;5.69;38.79;102412.00;5031203;28;20366;-68
2022/03/20 07:07:34;;;;;;;7.57;5.18;;;;;;;7.03;37.36;102474.06;5030625;28;20551;-68
2022/03/20 07:09:59;;;;;;;8.40;4.88;;;;;;;7.31;37.69;102457.94;5031213;28;20065;-67
2022/03/20 07:12:25;;;;;;;9.68;5.30;;;;;;;6.92;36.63;102424.91;5030048;28;20130;-68
2022/03/20 07:14:50;;;;;;;9.20;5.22;;;;;;;7.05;35.56;102415.09;5031003;28;20045;-67
2022/03/20 07:17:18;;;;;;;7.88;5.20;;;;;;;6.83;35.57;102465.09;5029861;28;20388;-68
2022/03/20 07:19:44;;;;;;;5.57;4.00;;;;;;;6.67;35.74;102472.22;5029647;28;20112;-68
2022/03/20 07:22:11;;;;;;;7.82;5.20;;;;;;;6.58;35.83;102401.19;5030704;28;20786;-67
2022/03/20 07:24:40;;;;;;;8.75;5.47;;;;;;;6.83;35.46;102444.84;5029778;28;20037;-68
2022/03/20 07:29:50;;;;;;;9.40;4.97;;;;;;;6.02;35.03;102395.38;5030867;28;20031;-67
2022/03/20 07:32:17;;;;;;;7.55;4.78;;;;;;;7.12;35.39;102447.31;5029490;28;20041;-67
2022/03/20 07:34:45;;;;;;;11.63;4.97;;;;;;;6.59;35.09;102396.19;5030436;28;20527;-67
2022/03/20 07:37:16;;;;;;;7.05;5.00;;;;;;;7.09;35.03;102435.44;5030882;28;20301;-68
2022/03/20 07:39:46;;;;;;;8.80;4.90;;;;;;;7.75;34.48;102451.41;5030591;28;20029;-68
2022/03/20 07:42:12;;;;;;;9.05;6.00;;;;;;;6.55;34.49;102407.03;5030755;28;20028;-68
2022/03/20 07:44:37;;;;;;;9.32;5.20;;;;;;;7.50;33.30;102423.81;5030567;28;20503;-68
2022/03/20 07:47:07;;;;;;;7.75;4.78;;;;;;;6.85;33.76;102328.63;5030412;28;20037;-67
2022/03/20 07:49:33;;;;;;;8.73;5.13;;;;;;;7.86;34.32;102401.91;5030762;28;20022;-67
2022/03/20 07:51:59;;;;;;;7.70;5.60;;;;;;;7.35;33.56;102409.13;5030868;28;20033;-68
2022/03/20 07:54:25;;;;;;;8.85;4.82;;;;;;;7.44;33.88;102444.78;5030598;28;20549;-70
2022/03/20 07:56:51;;;;;;;9.23;5.72;;;;;;;7.81;34.74;102380.66;5030148;28;20124;-66
2022/03/20 07:59:16;;;;;;;7.05;4.53;;;;;;;7.58;33.70;102425.72;5028550;28;20047;-68
2022/03/20 08:01:42;;;;;;;8.63;5.72;;;;;;;7.82;33.02;102373.09;5017377;28;20083;-68
2022/03/20 08:04:08;;;;;;;6.88;4.47;;;;;;;8.35;32.77;102426.63;5014699;28;20037;-69
2022/03/20 08:06:33;;;;;;;8.88;5.03;;;;;;;7.87;31.89;102431.44;5025603;28;20423;-67
2022/03/20 08:08:59;;;;;;;8.77;4.70;;;;;;;8.42;31.31;102428.44;5010658;28;20117;-67
2022/03/20 08:11:29;;;;;;;7.78;4.90;;;;;;;7.57;32.17;102410.47;5010638;28;20476;-68
2022/03/20 08:13:56;;;;;;;8.35;5.53;;;;;;;8.50;31.67;102383.81;5010550;28;20056;-67
2022/03/20 08:16:25;;;;;;;8.40;5.30;;;;;;;8.76;32.05;102428.28;5027916;28;20038;-67
2022/03/20 08:18:55;;;;;;;7.10;4.65;;;;;;;8.68;32.64;102419.69;5030240;28;20056;-68
2022/03/20 08:21:21;;;;;;;5.22;4.22;;;;;;;9.48;31.35;102355.97;5030210;28;20049;-69
2022/03/20 08:23:46;;;;;;;6.00;4.15;;;;;;;8.48;31.69;102426.91;5030253;28;20492;-68
2022/03/20 08:26:12;;;;;;;7.35;4.00;;;;;;;7.81;31.12;102370.53;5030044;28;20029;-68
2022/03/20 08:28:42;;;;;;;4.72;3.88;;;;;;;9.13;31.00;102409.53;5029898;28;20033;-67
2022/03/20 08:31:08;;;;;;;7.13;4.15;;;;;;;7.83;31.06;102359.63;5028949;28;20824;-70
2022/03/20 08:33:35;;;;;;;6.85;4.50;;;;;;;7.46;30.44;102290.44;5029856;28;20463;-67
2022/03/20 08:36:02;;;;;;;6.10;3.92;;;;;;;8.32;30.63;102396.16;5029966;28;20396;-67
2022/03/20 08:38:27;;;;;;;6.80;4.25;;;;;;;9.00;30.59;102405.91;5030439;28;20080;-68
2022/03/20 08:40:53;;;;;;;8.70;4.38;;;;;;;8.34;29.79;102344.66;5028909;28;20073;-67
2022/03/20 08:43:18;;;;;;;7.72;5.13;;;;;;;9.11;29.69;102403.56;5029995;28;20537;-66
2022/03/20 08:45:46;;;;;;;6.35;4.45;;;;;;;9.08;30.33;102352.75;5031513;28;20116;-68
2022/03/20 08:48:11;;;;;;;6.65;4.28;;;;;;;8.38;29.92;102401.31;5033521;28;20531;-67
2022/03/20 08:50:38;;;;;;;6.30;4.35;;;;;;;8.42;30.16;102383.69;5033900;28;20108;-68
2022/03/20 08:53:04;;;;;;;7.75;4.97;;;;;;;8.84;29.78;102388.69;5032323;28;20124;-68
2022/03/20 08:55:33;;;;;;;8.10;5.10;;;;;;;9.50;29.26;102339.06;5032158;28;20041;-68
2022/03/20 08:57:59;;;;;;;6.68;4.65;;;;;;;9.32;30.30;102379.41;5033483;28;20029;-68
2022/03/20 09:00:25;;;;;;;7.45;5.18;;;;;;;9.07;29.78;102394.19;5033754;28;20021;-68
2022/03/20 09:02:51;;;;;;;7.55;4.80;;;;;;;8.50;29.04;102331.44;5033372;28;20060;-69
2022/03/20 09:05:18;;;;;;;7.20;4.57;;;;;;;9.04;30.74;102367.06;5033552;28;20025;-68
2022/03/20 09:07:46;;;;;;;7.72;5.43;;;;;;;9.73;29.69;102329.19;5033644;28;20063;-68
2022/03/20 09:10:15;;;;;;;6.25;4.55;;;;;;;9.99;29.88;102372.72;5033426;28;20029;-68
2022/03/20 09:12:45;;;;;;;7.50;4.50;;;;;;;9.37;30.50;102384.53;5032597;28;20049;-69
2022/03/20 09:15:13;;;;;;;6.13;4.72;;;;;;;9.22;29.43;102336.06;5033291;28;20056;-68
2022/03/20 09:20:24;;;;;;;6.50;4.60;;;;;;;8.69;29.14;102370.69;5033624;28;20052;-67
2022/03/20 09:22:50;;;;;;;6.05;4.80;;;;;;;9.39;30.01;102347.31;5033271;28;20025;-68
2022/03/20 09:25:15;;;;;;;7.72;4.55;;;;;;;9.01;30.70;102318.84;5032948;28;20056;-69
2022/03/20 09:27:40;;;;;;;6.78;4.72;;;;;;;8.72;29.91;102307.34;5033090;28;20026;-68
2022/03/20 09:30:06;;;;;;;7.78;5.00;;;;;;;9.74;28.99;102373.25;5031796;28;20479;-69
2022/03/20 09:32:32;;;;;;;7.55;4.97;;;;;;;9.59;29.83;102384.03;5025091;28;20436;-68
2022/03/20 09:34:57;;;;;;;6.00;4.65;;;;;;;8.33;30.71;102329.44;5013049;28;20065;-68
2022/03/20 09:37:23;;;;;;;8.07;5.40;;;;;;;9.43;30.21;102324.53;5028443;28;20080;-68
2022/03/20 09:39:48;;;;;;;7.50;5.20;;;;;;;9.92;29.70;102364.19;5012977;28;20025;-68
2022/03/20 09:42:14;;;;;;;6.63;5.10;;;;;;;9.45;30.55;102350.81;5013463;28;20096;-69
2022/03/20 09:44:40;;;;;;;8.55;5.35;;;;;;;9.61;30.32;102323.94;5012831;28;20411;-68
2022/03/20 09:47:13;;;;;;;7.45;5.40;;;;;;;9.97;29.59;102337.16;5013129;28;20065;-68
2022/03/20 09:49:39;;;;;;;9.40;6.25;;;;;;;10.52;29.79;102284.41;5011642;28;20116;-69
2022/03/20 09:52:06;;;;;;;6.82;5.10;;;;;;;9.71;30.26;102355.41;5012565;28;20117;-67
2022/03/20 09:54:32;;;;;;;10.43;6.28;;;;;;;9.76;29.33;102283.53;5018778;28;20038;-67
2022/03/20 09:57:03;;;;;;;7.07;4.85;;;;;;;9.28;29.09;102295.56;5030740;28;20096;-67
2022/03/20 09:59:28;;;;;;;9.95;5.85;;;;;;;10.54;30.26;102336.97;5031739;28;20084;-68
2022/03/20 10:01:54;;;;;;;9.73;6.10;;;;;;;10.38;30.08;102300.38;5017027;28;20045;-67
2022/03/20 10:04:19;;;;;;;9.27;6.07;;;;;;;9.50;30.14;102288.28;5011775;28;20480;-68
2022/03/20 10:06:45;;;;;;;9.70;6.57;;;;;;;10.22;31.45;102328.16;5012129;28;20036;-68
2022/03/20 10:09:13;;;;;;;8.52;6.13;;;;;;;10.27;31.84;102342.63;5011443;28;20029;-68
2022/03/20 10:11:47;;;;;;;9.32;5.93;;;;;;;10.33;31.61;102256.25;5012416;28;20045;-67
2022/03/20 10:14:18;;;;;;;23.70;6.90;;;;;;;10.14;31.50;102289.09;5012629;28;20085;-66
2022/03/20 10:17:06;;;;;;;8.23;5.82;;;;;;;9.96;31.55;102260.91;5027667;28;20484;-66
2022/03/20 10:19:32;;;;;;;13.27;5.97;;;;;;;9.28;31.53;102210.13;5027241;28;20039;-67
2022/03/20 10:22:03;;;;;;;10.77;6.32;;;;;;;9.24;33.08;102276.91;5031063;28;20025;-67
2022/03/20 10:24:30;;;;;;;7.85;5.78;;;;;;;9.65;32.69;102309.63;5025976;28;20037;-67
2022/03/20 10:26:59;;;;;;;8.45;5.28;;;;;;;9.60;31.66;102322.25;5012335;28;20030;-67
2022/03/20 10:29:25;;;;;;;9.93;6.95;;;;;;;10.50;31.93;102258.13;5012161;28;20034;-67
2022/03/20 10:31:52;;;;;;;23.20;11.43;;;;;;;10.50;32.01;102215.69;5030663;28;20037;-67
2022/03/20 10:34:19;;;;;;;12.85;8.35;;;;;;;11.26;32.46;102285.84;5031489;28;20117;-67
2022/03/20 10:36:45;;;;;;;10.45;6.55;;;;;;;9.70;32.36;102269.91;5031372;28;20040;-67
2022/03/20 10:39:14;;;;;;;11.10;6.78;;;;;;;9.81;32.91;102269.19;5031708;28;20048;-67
2022/03/20 10:41:40;;;;;;;12.80;8.10;;;;;;;10.84;31.32;102252.44;5032090;28;20475;-67
2022/03/20 10:44:13;;;;;;;28.02;12.90;;;;;;;10.56;32.39;102304.78;5030182;28;20090;-67
2022/03/20 10:46:39;;;;;;;19.77;10.95;;;;;;;10.15;32.57;102284.03;5031236;28;20557;-68
2022/03/20 10:49:06;;;;;;;11.00;6.60;;;;;;;10.18;31.91;102299.28;5031648;28;20033;-68
2022/03/20 10:51:38;;;;;;;13.73;8.80;;;;;;;10.13;32.91;102196.75;5031489;28;20511;-67
2022/03/20 10:54:07;;;;;;;21.98;12.18;;;;;;;11.33;32.96;102292.66;5031237;28;20033;-67
2022/03/20 10:56:33;;;;;;;8.65;6.60;;;;;;;9.91;33.46;102232.88;5030118;28;20397;-67
2022/03/20 10:59:00;;;;;;;11.73;7.00;;;;;;;10.10;33.44;102308.53;5031159;28;20430;-67
2022/03/20 11:01:36;;;;;;;8.25;6.43;;;;;;;9.73;32.55;102231.81;5031672;28;20029;-67
2022/03/20 11:04:04;;;;;;;19.05;7.88;;;;;;;11.48;30.14;102210.41;5031420;28;20389;-68
2022/03/20 11:06:30;;;;;;;18.60;11.30;;;;;;;10.43;31.84;102236.84;5020917;28;20165;-67
2022/03/20 11:08:56;;;;;;;9.73;6.70;;;;;;;11.99;31.72;102219.13;5020963;28;20104;-68
2022/03/20 11:11:24;;;;;;;9.32;6.60;;;;;;;12.34;30.63;102218.31;5030788;28;20025;-68
2022/03/20 11:13:50;;;;;;;9.35;6.28;;;;;;;11.85;30.83;102261.56;5031114;28;20036;-67
2022/03/20 11:16:23;;;;;;;9.35;6.68;;;;;;;11.32;32.42;102262.97;5031233;28;20037;-67
2022/03/20 11:18:52;;;;;;;9.18;6.32;;;;;;;10.76;31.59;102241.34;5029516;28;20657;-67
2022/03/20 11:21:22;;;;;;;7.85;6.32;;;;;;;9.85;32.24;102181.16;5029632;28;20038;-68
2022/03/20 11:23:48;;;;;;;9.00;6.10;;;;;;;9.92;31.92;102196.50;5029296;28;20091;-67
2022/03/20 11:26:15;;;;;;;13.65;8.82;;;;;;;10.92;31.44;102205.84;5029575;28;20030;-68
2022/03/20 11:28:45;;;;;;;12.70;7.28;;;;;;;11.75;31.92;102264.06;5030863;28;20021;-68
2022/03/20 11:31:13;;;;;;;8.93;6.70;;;;;;;11.36;31.37;102264.69;5030715;28;20083;-68
2022/03/20 11:33:42;;;;;;;11.25;6.70;;;;;;;11.22;31.81;102262.06;5030836;28;20040;-67
2022/03/20 11:36:08;;;;;;;7.72;6.25;;;;;;;11.68;31.09;102183.34;5030623;28;20030;-67
2022/03/20 11:38:35;;;;;;;10.05;6.88;;;;;;;10.96;30.71;102239.81;5030426;28;20043;-66
2022/03/20 11:41:17;;;;;;;13.45;7.90;;;;;;;11.02;32.04;102258.53;5029549;28;20458;-68
2022/03/20 11:44:15;;;;;;;8.60;7.10;;;;;;;11.91;31.24;102246.28;5030822;28;20392;-68
2022/03/20 11:46:43;;;;;;;11.77;6.55;;;;;;;11.29;30.97;102230.69;5030405;28;20037;-67
2022/03/20 11:49:18;;;;;;;7.57;6.30;;;;;;;10.77;32.25;102254.09;5029245;28;20113;-68
2022/03/20 11:52:06;;;;;;;9.95;6.93;;;;;;;11.07;31.84;102235.66;5030543;28;20446;-67
2022/03/20 11:54:40;;;;;;;10.43;6.80;;;;;;;11.53;32.23;102229.94;5030587;28;20498;-67
2022/03/20 11:57:24;;;;;;;8.13;6.57;;;;;;;12.12;31.55;102235.28;5028923;28;20447;-67
2022/03/20 11:59:52;;;;;;;8.95;6.70;;;;;;;10.95;31.67;102225.41;5030470;28;20414;-68